Avi Salvador — EA6682 — position and weather

sailwx.info

Track history (hours):
 
Tides and Currents Weather Stations Pressure Air Temp Water Temp Dewpoint Dewpoint Depression Visibility Wind Speed Wind Dir Waves Ship Positions

Avi Salvador

Last reported at 2017-Dec-04 06:48 UTC. Time now 2017-Dec-11 17:29 UTC.
Position N 41°01' E 001°42'.

Length 22 m.

Type: Fishing. MMSI: 224011150.

Date/timePositionNaut miles runAvg speedWind from/ knotsBaromVisibWave heightAir tempDewpointWater temp
2017-Dec-04 06:48N 41°01' E 001°42'3 9.6
2017-Dec-04 06:30N 41°04' E 001°42'510.9
2017-Dec-04 06:00N 41°09' E 001°43'4 7.2
2017-Dec-04 05:30N 41°13' E 001°44'0 0.0
2017-Dec-04 05:00N 41°13' E 001°44'  
2017-Dec-01 08:01N 41°13' E 001°44'0 1.1
2017-Dec-01 08:00N 41°13' E 001°44'0 0.0
2017-Dec-01 07:30N 41°13' E 001°44'2 4.5
2017-Dec-01 07:00N 41°11' E 001°44'4 7.7
2017-Dec-01 06:30N 41°07' E 001°43'2 5.0
2017-Dec-01 06:00N 41°09' E 001°43'3 6.0
2017-Dec-01 05:30N 41°12' E 001°44'1 1.2
2017-Dec-01 05:00N 41°13' E 001°44'0 0.0
2017-Nov-30 15:45N 41°13' E 001°44'1 2.1
2017-Nov-30 15:30N 41°12' E 001°44'5 9.9
2017-Nov-30 15:00N 41°08' E 001°43'510.3
2017-Nov-30 14:30N 41°02' E 001°43'1 0.2
2017-Nov-30 06:45N 41°01' E 001°42'2 9.5
2017-Nov-30 06:30N 41°04' E 001°42'611.2
2017-Nov-30 06:00N 41°09' E 001°43'2 4.3
2017-Nov-30 05:30N 41°11' E 001°43'2 3.4
2017-Nov-30 05:00N 41°13' E 001°44'0 0.0
2017-Nov-29 15:35N 41°13' E 001°44'0 2.4
2017-Nov-29 15:31N 41°13' E 001°44'4 8.6
2017-Nov-29 15:01N 41°09' E 001°43'5 9.5
2017-Nov-29 14:30N 41°04' E 001°42'3 5.1
2017-Nov-29 13:59N 41°01' E 001°42'2 0.3
2017-Nov-29 06:33N 41°03' E 001°42'010.9
2017-Nov-29 06:30N 41°04' E 001°42'510.9
2017-Nov-29 06:00N 41°09' E 001°43'3 5.9
2017-Nov-29 05:30N 41°12' E 001°44'1 1.4
2017-Nov-29 05:00N 41°13' E 001°44'0 0.0
2017-Nov-28 15:35N 41°13' E 001°44'4 7.7
2017-Nov-28 15:00N 41°09' E 001°43'5 9.8
2017-Nov-28 14:30N 41°04' E 001°42'3 0.3
2017-Nov-28 06:49N 41°01' E 001°42'3 9.0
2017-Nov-28 06:30N 41°04' E 001°42'510.9
2017-Nov-28 06:00N 41°09' E 001°43'3 5.7
2017-Nov-28 05:30N 41°12' E 001°44'1 0.1
2017-Nov-27 15:34N 41°13' E 001°44'0 2.4
2017-Nov-27 15:30N 41°13' E 001°44'5 9.6
2017-Nov-27 15:00N 41°08' E 001°43'510.0
2017-Nov-27 14:30N 41°03' E 001°42'9 1.1
2017-Nov-27 06:42N 41°09' E 001°33'2 5.3
2017-Nov-27 06:21N 41°09' E 001°36'412.3
2017-Nov-27 06:00N 41°10' E 001°41'4 7.1
2017-Nov-27 05:30N 41°13' E 001°44'0 0.6
2017-Nov-27 05:00N 41°13' E 001°44'  
2017-Nov-24 16:16N 41°13' E 001°44'0 0.4
2017-Nov-24 16:00N 41°13' E 001°44'0 0.0
2017-Nov-24 15:30N 41°13' E 001°44'4 8.3
2017-Nov-24 15:00N 41°09' E 001°43'510.6
2017-Nov-24 14:30N 41°03' E 001°43'4 1.3
2017-Nov-24 11:36N 41°00' E 001°41'0 1.9
2017-Nov-24 11:25N 41°00' E 001°41'2 5.7
2017-Nov-24 11:00N 41°03' E 001°42'0 0.6
2017-Nov-24 10:31N 41°02' E 001°42'1 2.2
2017-Nov-24 09:53N 41°04' E 001°42'2 3.9
2017-Nov-24 09:26N 41°05' E 001°41'1 2.2
2017-Nov-24 08:49N 41°04' E 001°42'1 2.3
2017-Nov-24 08:29N 41°03' E 001°42'0 0.1
2017-Nov-24 07:40N 41°03' E 001°42'2 2.4
2017-Nov-24 06:48N 41°05' E 001°41'  
Track history (hours):
 
Tides and Currents Weather Stations Pressure Air Temp Water Temp Dewpoint Dewpoint Depression Visibility Wind Speed Wind Dir Waves Ship Positions

Avi Salvador

Last reported at 2017-Dec-04 06:48 UTC. Time now 2017-Dec-11 17:29 UTC.
Position N 41°01' E 001°42'.

Length 22 m.

Type: Fishing. MMSI: 224011150.

Date/timePositionNaut miles runAvg speedWind from/ knotsBaromVisibWave heightAir tempDewpointWater temp
2017-Dec-04 06:48N 41°01' E 001°42'3 9.6
2017-Dec-04 06:30N 41°04' E 001°42'510.9
2017-Dec-04 06:00N 41°09' E 001°43'4 7.2
2017-Dec-04 05:30N 41°13' E 001°44'0 0.0
2017-Dec-04 05:00N 41°13' E 001°44'  
2017-Dec-01 08:01N 41°13' E 001°44'0 1.1
2017-Dec-01 08:00N 41°13' E 001°44'0 0.0
2017-Dec-01 07:30N 41°13' E 001°44'2 4.5
2017-Dec-01 07:00N 41°11' E 001°44'4 7.7
2017-Dec-01 06:30N 41°07' E 001°43'2 5.0
2017-Dec-01 06:00N 41°09' E 001°43'3 6.0
2017-Dec-01 05:30N 41°12' E 001°44'1 1.2
2017-Dec-01 05:00N 41°13' E 001°44'0 0.0
2017-Nov-30 15:45N 41°13' E 001°44'1 2.1
2017-Nov-30 15:30N 41°12' E 001°44'5 9.9
2017-Nov-30 15:00N 41°08' E 001°43'510.3
2017-Nov-30 14:30N 41°02' E 001°43'1 0.2
2017-Nov-30 06:45N 41°01' E 001°42'2 9.5
2017-Nov-30 06:30N 41°04' E 001°42'611.2
2017-Nov-30 06:00N 41°09' E 001°43'2 4.3
2017-Nov-30 05:30N 41°11' E 001°43'2 3.4
2017-Nov-30 05:00N 41°13' E 001°44'0 0.0
2017-Nov-29 15:35N 41°13' E 001°44'0 2.4
2017-Nov-29 15:31N 41°13' E 001°44'4 8.6
2017-Nov-29 15:01N 41°09' E 001°43'5 9.5
2017-Nov-29 14:30N 41°04' E 001°42'3 5.1
2017-Nov-29 13:59N 41°01' E 001°42'2 0.3
2017-Nov-29 06:33N 41°03' E 001°42'010.9
2017-Nov-29 06:30N 41°04' E 001°42'510.9
2017-Nov-29 06:00N 41°09' E 001°43'3 5.9
2017-Nov-29 05:30N 41°12' E 001°44'1 1.4
2017-Nov-29 05:00N 41°13' E 001°44'0 0.0
2017-Nov-28 15:35N 41°13' E 001°44'4 7.7
2017-Nov-28 15:00N 41°09' E 001°43'5 9.8
2017-Nov-28 14:30N 41°04' E 001°42'3 0.3
2017-Nov-28 06:49N 41°01' E 001°42'3 9.0
2017-Nov-28 06:30N 41°04' E 001°42'510.9
2017-Nov-28 06:00N 41°09' E 001°43'3 5.7
2017-Nov-28 05:30N 41°12' E 001°44'1 0.1
2017-Nov-27 15:34N 41°13' E 001°44'0 2.4
2017-Nov-27 15:30N 41°13' E 001°44'5 9.6
2017-Nov-27 15:00N 41°08' E 001°43'510.0
2017-Nov-27 14:30N 41°03' E 001°42'9 1.1
2017-Nov-27 06:42N 41°09' E 001°33'2 5.3
2017-Nov-27 06:21N 41°09' E 001°36'412.3
2017-Nov-27 06:00N 41°10' E 001°41'4 7.1
2017-Nov-27 05:30N 41°13' E 001°44'0 0.6
2017-Nov-27 05:00N 41°13' E 001°44'  
2017-Nov-24 16:16N 41°13' E 001°44'0 0.4
2017-Nov-24 16:00N 41°13' E 001°44'0 0.0
2017-Nov-24 15:30N 41°13' E 001°44'4 8.3
2017-Nov-24 15:00N 41°09' E 001°43'510.6
2017-Nov-24 14:30N 41°03' E 001°43'4 1.3
2017-Nov-24 11:36N 41°00' E 001°41'0 1.9
2017-Nov-24 11:25N 41°00' E 001°41'2 5.7
2017-Nov-24 11:00N 41°03' E 001°42'0 0.6
2017-Nov-24 10:31N 41°02' E 001°42'1 2.2
2017-Nov-24 09:53N 41°04' E 001°42'2 3.9
2017-Nov-24 09:26N 41°05' E 001°41'1 2.2
2017-Nov-24 08:49N 41°04' E 001°42'1 2.3
2017-Nov-24 08:29N 41°03' E 001°42'0 0.1
2017-Nov-24 07:40N 41°03' E 001°42'2 2.4
2017-Nov-24 06:48N 41°05' E 001°41'  

Dump ship's entire track history